Time;durP1;ratioP1;P1;durP2;ratioP2;P2;SDS_P1;SDS_P2;PMS_P1;PMS_P2;Temp;Humidity;BMP_temperature;BMP_pressure;BME280_temperature;BME280_humidity;BME280_pressure;Samples;Min_cycle;Max_cycle;Signal;HPM_P1;HPM_P2
2022/06/20 00:00:26;;;;;;;21.98;5.70;;;;;;;;;;5051350;28;20029;-87
2022/06/20 00:02:54;;;;;;;19.63;5.78;;;;;;;;;;5051188;28;20037;-87
2022/06/20 00:05:24;;;;;;;20.08;5.95;;;;;;;;;;5050195;28;20021;-87
2022/06/20 00:07:50;;;;;;;14.00;5.57;;;;;;;;;;5050479;28;20101;-87
2022/06/20 00:10:18;;;;;;;17.55;5.95;;;;;;;;;;5050143;28;20045;-86
2022/06/20 00:12:45;;;;;;;18.33;5.95;;;;;;;;;;5050794;28;20029;-86
2022/06/20 00:15:22;;;;;;;21.70;6.28;;;;;;;;;;5032339;28;20029;-86
2022/06/20 00:17:47;;;;;;;17.85;6.15;;;;;;;;;;5051112;28;20037;-86
2022/06/20 00:20:14;;;;;;;13.98;5.60;;;;;;;;;;5050714;28;20072;-86
2022/06/20 00:22:40;;;;;;;20.77;5.70;;;;;;;;;;5050483;28;20148;-86
2022/06/20 00:25:06;;;;;;;18.17;5.97;;;;;;;;;;5031920;28;20089;-86
2022/06/20 00:27:31;;;;;;;20.35;5.45;;;;;;;;;;5050825;28;20127;-85
2022/06/20 00:29:57;;;;;;;24.63;5.72;;;;;;;;;;5048309;28;20037;-85
2022/06/20 00:32:22;;;;;;;19.30;6.18;;;;;;;;;;5030643;28;20038;-85
2022/06/20 00:34:48;;;;;;;20.17;6.10;;;;;;;;;;5030685;28;20068;-84
2022/06/20 00:37:18;;;;;;;17.92;5.88;;;;;;;;;;5047335;28;20057;-85
2022/06/20 00:39:45;;;;;;;24.67;6.45;;;;;;;;;;5048736;28;20060;-85
2022/06/20 00:42:11;;;;;;;18.20;6.00;;;;;;;;;;5048597;28;20060;-85
2022/06/20 00:44:40;;;;;;;18.48;5.65;;;;;;;;;;5047360;28;20029;-85
2022/06/20 00:47:10;;;;;;;16.33;6.05;;;;;;;;;;5048258;28;20096;-84
2022/06/20 00:49:44;;;;;;;20.50;5.57;;;;;;;;;;5029900;28;20038;-84
2022/06/20 00:52:22;;;;;;;19.20;5.85;;;;;;;;;;5048091;28;20140;-84
2022/06/20 00:54:58;;;;;;;19.50;5.57;;;;;;;;;;5046950;28;20044;-84
2022/06/20 00:57:31;;;;;;;26.48;5.70;;;;;;;;;;5046918;28;20049;-84
2022/06/20 01:00:13;;;;;;;16.23;5.97;;;;;;;;;;5047729;28;20045;-84
2022/06/20 01:02:43;;;;;;;16.58;5.30;;;;;;;;;;5047589;28;20521;-84
2022/06/20 01:05:35;;;;;;;21.17;6.20;;;;;;;;;;5046006;28;20033;-84
2022/06/20 01:08:11;;;;;;;22.13;6.30;;;;;;;;;;5030095;28;20079;-84
2022/06/20 01:11:05;;;;;;;22.83;6.65;;;;;;;;;;5048019;28;20061;-84
2022/06/20 01:13:31;;;;;;;14.45;6.10;;;;;;;;;;5045425;28;20056;-84
2022/06/20 01:16:15;;;;;;;23.27;6.40;;;;;;;;;;5046978;28;20021;-85
2022/06/20 01:18:43;;;;;;;22.45;6.30;;;;;;;;;;5030464;28;20113;-84
2022/06/20 01:21:15;;;;;;;19.83;6.03;;;;;;;;;;5048136;28;20060;-84
2022/06/20 01:23:46;;;;;;;22.38;5.85;;;;;;;;;;5047485;28;20517;-83
2022/06/20 01:26:45;;;;;;;16.27;6.07;;;;;;;;;;5046097;28;20430;-84
2022/06/20 01:29:12;;;;;;;20.40;6.03;;;;;;;;;;5046788;28;20069;-84
2022/06/20 01:31:43;;;;;;;21.67;5.82;;;;;;;;;;5047415;28;20037;-84
2022/06/20 01:34:11;;;;;;;15.77;6.35;;;;;;;;;;5045207;28;20065;-84
2022/06/20 01:39:25;;;;;;;16.90;5.50;;;;;;;;;;5047151;28;20037;-84
2022/06/20 01:44:42;;;;;;;17.42;6.03;;;;;;;;;;5046734;28;20100;-84
2022/06/20 01:47:07;;;;;;;16.77;6.40;;;;;;;;;;5046271;28;20049;-84
2022/06/20 01:49:34;;;;;;;16.67;5.80;;;;;;;;;;5046899;28;20052;-84
2022/06/20 01:52:18;;;;;;;21.75;5.88;;;;;;;;;;5046774;28;20402;-84
2022/06/20 01:54:53;;;;;;;12.70;5.70;;;;;;;;;;5045808;28;20087;-84
2022/06/20 01:57:21;;;;;;;17.42;6.10;;;;;;;;;;5047217;28;20061;-84
2022/06/20 02:00:01;;;;;;;18.20;6.35;;;;;;;;;;5046255;28;20045;-84
2022/06/20 02:02:33;;;;;;;16.85;5.78;;;;;;;;;;5046554;28;20095;-84
2022/06/20 02:05:02;;;;;;;17.38;6.55;;;;;;;;;;5046683;28;20025;-84
2022/06/20 02:07:28;;;;;;;21.80;5.80;;;;;;;;;;5046042;28;20061;-84
2022/06/20 02:09:54;;;;;;;12.95;6.20;;;;;;;;;;5027713;28;20025;-84
2022/06/20 02:12:20;;;;;;;17.67;5.85;;;;;;;;;;5046711;28;20089;-84
2022/06/20 02:14:55;;;;;;;20.58;6.50;;;;;;;;;;5027818;28;20017;-84
2022/06/20 02:17:24;;;;;;;15.15;6.15;;;;;;;;;;5046480;28;20041;-83
2022/06/20 02:19:53;;;;;;;19.77;6.10;;;;;;;;;;5028935;28;20041;-84
2022/06/20 02:22:21;;;;;;;19.38;6.38;;;;;;;;;;5046202;28;20075;-84
2022/06/20 02:24:51;;;;;;;23.13;6.70;;;;;;;;;;5045660;28;20042;-84
2022/06/20 02:27:43;;;;;;;15.38;6.13;;;;;;;;;;5046547;28;20041;-84
2022/06/20 02:30:10;;;;;;;17.70;6.57;;;;;;;;;;5045978;28;20041;-86
2022/06/20 02:32:41;;;;;;;19.65;6.22;;;;;;;;;;5046078;28;20497;-85
2022/06/20 02:35:10;;;;;;;18.75;6.50;;;;;;;;;;5045988;28;20037;-85
2022/06/20 02:37:36;;;;;;;21.15;5.90;;;;;;;;;;5045533;28;20045;-85
2022/06/20 02:40:06;;;;;;;17.60;6.00;;;;;;;;;;5045887;28;20100;-85
2022/06/20 02:42:40;;;;;;;16.88;6.05;;;;;;;;;;5045918;28;20036;-86
2022/06/20 02:45:11;;;;;;;20.48;6.05;;;;;;;;;;5045044;28;20048;-84
2022/06/20 02:47:43;;;;;;;18.98;6.07;;;;;;;;;;5045558;28;20036;-85
2022/06/20 02:50:12;;;;;;;17.88;6.07;;;;;;;;;;5045599;28;20539;-84
2022/06/20 02:52:48;;;;;;;16.88;6.25;;;;;;;;;;5045167;28;20038;-84
2022/06/20 02:55:16;;;;;;;21.73;6.40;;;;;;;;;;5045037;28;20029;-84
2022/06/20 02:57:49;;;;;;;16.15;6.05;;;;;;;;;;5045463;28;20100;-85
2022/06/20 03:00:18;;;;;;;18.20;6.05;;;;;;;;;;5027933;28;20434;-84
2022/06/20 03:02:51;;;;;;;20.40;6.45;;;;;;;;;;5045680;28;20042;-84
2022/06/20 03:05:18;;;;;;;15.93;6.18;;;;;;;;;;5045009;28;20025;-85
2022/06/20 03:07:45;;;;;;;19.25;7.20;;;;;;;;;;5045397;28;20478;-84
2022/06/20 03:10:10;;;;;;;15.15;6.50;;;;;;;;;;5045261;28;20041;-85
2022/06/20 03:12:36;;;;;;;25.48;6.45;;;;;;;;;;5044980;28;20044;-85
2022/06/20 03:15:04;;;;;;;18.45;5.97;;;;;;;;;;5044425;28;20029;-85
2022/06/20 03:17:29;;;;;;;21.60;6.80;;;;;;;;;;5045490;28;20037;-84
2022/06/20 03:19:58;;;;;;;19.23;6.60;;;;;;;;;;5027991;28;20056;-84
2022/06/20 03:22:32;;;;;;;16.85;6.07;;;;;;;;;;5048961;28;20061;-84
2022/06/20 03:24:57;;;;;;;17.90;6.47;;;;;;;;;;5048458;28;20044;-84
2022/06/20 03:27:27;;;;;;;17.75;6.00;;;;;;;;;;5049421;28;20037;-85
2022/06/20 03:29:57;;;;;;;19.05;6.32;;;;;;;;;;5049943;28;20025;-85
2022/06/20 03:32:24;;;;;;;16.73;6.70;;;;;;;;;;5048984;28;20444;-85
2022/06/20 03:34:50;;;;;;;16.73;5.88;;;;;;;;;;5048704;28;20034;-85
2022/06/20 03:37:16;;;;;;;16.83;5.75;;;;;;;;;;5049358;28;20041;-84
2022/06/20 03:39:44;;;;;;;18.48;6.07;;;;;;;;;;5049220;28;20065;-84
2022/06/20 03:42:09;;;;;;;15.35;6.68;;;;;;;;;;5049424;28;20117;-84
2022/06/20 03:44:40;;;;;;;23.15;6.47;;;;;;;;;;5048747;28;20021;-85
2022/06/20 03:47:21;;;;;;;19.90;6.63;;;;;;;;;;5047076;28;20417;-85
2022/06/20 03:50:04;;;;;;;15.25;5.63;;;;;;;;;;5048876;28;20041;-85
2022/06/20 03:53:05;;;;;;;21.27;6.40;;;;;;;;;;5048392;28;20037;-85
2022/06/20 03:55:36;;;;;;;17.30;5.82;;;;;;;;;;4996838;28;20041;-84
2022/06/20 03:58:11;;;;;;;20.70;6.50;;;;;;;;;;5049034;28;20049;-84
2022/06/20 04:00:41;;;;;;;17.38;6.75;;;;;;;;;;5048587;28;20064;-85
2022/06/20 04:03:19;;;;;;;15.02;5.82;;;;;;;;;;5049035;28;20041;-85
2022/06/20 04:05:57;;;;;;;14.88;6.30;;;;;;;;;;5047903;28;20025;-84
2022/06/20 04:10:57;;;;;;;24.15;6.60;;;;;;;;;;5031057;28;20040;-85
2022/06/20 04:11:18;;;;;;;15.57;5.78;;;;;;;;;;5048279;28;20056;-84
2022/06/20 04:14:05;;;;;;;18.60;6.50;;;;;;;;;;5047802;28;20029;-85
2022/06/20 04:16:43;;;;;;;18.38;6.57;;;;;;;;;;5047970;28;20310;-85
2022/06/20 04:19:08;;;;;;;18.58;6.30;;;;;;;;;;5048826;28;20033;-85
2022/06/20 04:21:43;;;;;;;15.00;6.13;;;;;;;;;;5048691;28;20617;-85
2022/06/20 04:24:36;;;;;;;16.15;6.35;;;;;;;;;;5047194;28;20056;-85
2022/06/20 04:27:18;;;;;;;16.77;5.88;;;;;;;;;;5048430;28;20037;-84
2022/06/20 04:29:55;;;;;;;20.10;6.85;;;;;;;;;;5046851;28;20543;-84
2022/06/20 04:32:21;;;;;;;17.50;6.28;;;;;;;;;;5047955;28;20042;-84
2022/06/20 04:34:53;;;;;;;20.90;6.32;;;;;;;;;;5047524;28;20098;-84
2022/06/20 04:37:21;;;;;;;21.63;5.72;;;;;;;;;;5047989;28;20079;-85
2022/06/20 04:39:46;;;;;;;14.68;5.88;;;;;;;;;;5029675;28;20040;-85
2022/06/20 04:42:27;;;;;;;17.85;6.07;;;;;;;;;;5030047;28;20033;-85
2022/06/20 04:45:04;;;;;;;14.43;5.70;;;;;;;;;;5029930;28;20371;-84
2022/06/20 04:47:41;;;;;;;21.95;6.22;;;;;;;;;;5048069;28;20559;-85
2022/06/20 04:50:15;;;;;;;19.30;6.15;;;;;;;;;;5048227;28;20124;-84
2022/06/20 04:52:41;;;;;;;23.55;6.20;;;;;;;;;;5048103;28;20079;-84
2022/06/20 04:55:12;;;;;;;17.13;6.47;;;;;;;;;;5046786;28;20029;-84
2022/06/20 04:57:38;;;;;;;19.58;6.88;;;;;;;;;;5030708;28;20050;-84
2022/06/20 05:00:08;;;;;;;17.13;6.93;;;;;;;;;;5048531;28;20175;-84
2022/06/20 05:02:34;;;;;;;20.92;6.90;;;;;;;;;;5030873;28;20120;-84
2022/06/20 05:05:04;;;;;;;24.27;7.47;;;;;;;;;;5047138;28;20207;-84
2022/06/20 05:07:35;;;;;;;24.88;7.50;;;;;;;;;;5048361;28;20033;-85
2022/06/20 05:10:16;;;;;;;20.55;6.70;;;;;;;;;;5030357;28;20105;-84
2022/06/20 05:13:28;;;;;;;18.05;7.70;;;;;;;;;;5048144;28;20049;-84
2022/06/20 05:15:54;;;;;;;21.10;6.97;;;;;;;;;;4988127;28;20062;-84
2022/06/20 05:18:32;;;;;;;16.27;7.15;;;;;;;;;;4986655;28;20049;-84
2022/06/20 05:21:07;;;;;;;19.23;7.28;;;;;;;;;;5022991;28;20049;-84
2022/06/20 05:23:46;;;;;;;17.30;7.15;;;;;;;;;;5030227;28;20029;-83
2022/06/20 05:26:21;;;;;;;18.40;7.65;;;;;;;;;;5046907;28;20060;-84
2022/06/20 05:28:50;;;;;;;21.02;7.25;;;;;;;;;;5047926;28;20390;-85
2022/06/20 05:31:20;;;;;;;16.67;7.32;;;;;;;;;;5044396;28;20021;-84
2022/06/20 05:33:54;;;;;;;19.52;7.35;;;;;;;;;;5029447;28;20044;-85
2022/06/20 05:36:30;;;;;;;15.93;6.93;;;;;;;;;;5045459;28;20367;-84
2022/06/20 05:39:04;;;;;;;21.48;8.50;;;;;;;;;;5048072;28;20045;-85
2022/06/20 05:41:29;;;;;;;18.17;7.25;;;;;;;;;;5053825;28;20048;-84
2022/06/20 05:43:56;;;;;;;24.27;7.85;;;;;;;;;;5060836;28;20034;-83
2022/06/20 05:46:27;;;;;;;16.15;7.05;;;;;;;;;;5045986;28;20036;-84
2022/06/20 05:48:58;;;;;;;15.65;6.50;;;;;;;;;;5046963;28;20037;-84
2022/06/20 05:51:27;;;;;;;18.58;6.60;;;;;;;;;;5045902;28;20037;-82
2022/06/20 05:54:00;;;;;;;16.02;6.60;;;;;;;;;;5044405;28;20040;-83
2022/06/20 05:56:30;;;;;;;13.88;5.97;;;;;;;;;;5045991;28;20095;-83
2022/06/20 05:58:56;;;;;;;16.63;6.18;;;;;;;;;;5027915;28;20722;-83
2022/06/20 06:01:31;;;;;;;18.30;5.55;;;;;;;;;;5044706;28;20653;-82
2022/06/20 06:04:23;;;;;;;16.65;5.78;;;;;;;;;;5044014;28;20055;-81
2022/06/20 06:06:55;;;;;;;15.13;5.80;;;;;;;;;;5027552;28;20040;-83
2022/06/20 06:09:36;;;;;;;14.10;5.95;;;;;;;;;;5024104;28;20048;-83
2022/06/20 06:12:05;;;;;;;16.48;5.53;;;;;;;;;;5039784;28;20044;-84
2022/06/20 06:14:31;;;;;;;17.17;6.50;;;;;;;;;;5038304;28;20490;-84
2022/06/20 06:17:11;;;;;;;16.92;6.38;;;;;;;;;;5022174;28;20037;-83
2022/06/20 06:19:57;;;;;;;12.70;5.60;;;;;;;;;;5038410;28;20071;-84
2022/06/20 06:22:26;;;;;;;17.92;5.90;;;;;;;;;;5036829;28;20498;-84
2022/06/20 06:25:12;;;;;;;16.50;5.90;;;;;;;;;;5037648;28;20025;-83
2022/06/20 06:27:37;;;;;;;20.02;5.82;;;;;;;;;;5027754;28;20045;-83
2022/06/20 06:30:24;;;;;;;15.35;6.15;;;;;;;;;;5047935;28;20044;-83
2022/06/20 06:32:59;;;;;;;15.18;6.05;;;;;;;;;;5026210;28;20029;-84
2022/06/20 06:35:34;;;;;;;15.90;5.70;;;;;;;;;;5042078;28;20029;-84
2022/06/20 06:38:36;;;;;;;16.55;5.95;;;;;;;;;;5042635;28;20056;-84
2022/06/20 06:41:07;;;;;;;19.33;6.60;;;;;;;;;;5011782;28;20049;-83
2022/06/20 06:43:43;;;;;;;20.38;6.45;;;;;;;;;;5048824;28;20033;-84
2022/06/20 06:46:22;;;;;;;16.58;6.80;;;;;;;;;;5049147;28;20035;-84
2022/06/20 06:49:06;;;;;;;16.10;6.10;;;;;;;;;;5049003;28;20048;-84
2022/06/20 06:51:43;;;;;;;21.27;7.28;;;;;;;;;;5047261;28;20059;-84
2022/06/20 06:54:15;;;;;;;14.57;6.60;;;;;;;;;;5048719;28;20076;-84
2022/06/20 06:56:48;;;;;;;22.80;7.37;;;;;;;;;;5046896;28;20484;-84
2022/06/20 06:59:19;;;;;;;12.15;6.05;;;;;;;;;;5045528;28;20037;-87
2022/06/20 07:01:51;;;;;;;14.40;6.07;;;;;;;;;;5036615;28;20064;-85
2022/06/20 07:04:21;;;;;;;20.95;6.32;;;;;;;;;;5035762;28;20076;-86
2022/06/20 07:07:10;;;;;;;16.83;6.20;;;;;;;;;;5034136;28;20342;-85
2022/06/20 07:09:42;;;;;;;19.23;6.00;;;;;;;;;;5037396;28;20546;-85
2022/06/20 07:12:20;;;;;;;14.55;6.47;;;;;;;;;;5033055;28;20033;-85
2022/06/20 07:14:57;;;;;;;16.40;6.57;;;;;;;;;;5032336;28;20034;-83
2022/06/20 07:17:29;;;;;;;15.80;6.35;;;;;;;;;;5033704;28;20037;-84
2022/06/20 07:19:56;;;;;;;20.07;6.53;;;;;;;;;;5016602;28;20044;-85
2022/06/20 07:22:23;;;;;;;14.70;6.22;;;;;;;;;;5034330;28;20268;-84
2022/06/20 07:24:50;;;;;;;16.20;6.40;;;;;;;;;;5032735;28;20056;-84
2022/06/20 07:27:34;;;;;;;20.02;6.45;;;;;;;;;;5032319;28;20099;-84
2022/06/20 07:30:09;;;;;;;15.88;7.15;;;;;;;;;;5035560;28;20509;-84
2022/06/20 07:32:51;;;;;;;17.63;6.32;;;;;;;;;;5033889;28;20442;-83
2022/06/20 07:35:26;;;;;;;15.95;6.70;;;;;;;;;;5032699;28;20091;-84
2022/06/20 07:38:09;;;;;;;19.80;6.05;;;;;;;;;;5034650;28;20057;-84
2022/06/20 07:40:46;;;;;;;15.73;6.27;;;;;;;;;;5034298;28;20531;-85
2022/06/20 07:43:17;;;;;;;12.85;5.43;;;;;;;;;;5033957;28;20283;-84
2022/06/20 07:45:47;;;;;;;19.98;6.18;;;;;;;;;;5034116;28;20037;-85
2022/06/20 07:48:38;;;;;;;17.15;6.00;;;;;;;;;;5035887;28;20125;-84
2022/06/20 07:51:25;;;;;;;13.57;6.05;;;;;;;;;;5034366;28;20026;-85
2022/06/20 07:54:23;;;;;;;15.40;5.85;;;;;;;;;;5034712;28;20391;-85
2022/06/20 07:57:11;;;;;;;16.77;5.85;;;;;;;;;;5034807;28;20033;-84
2022/06/20 07:59:57;;;;;;;12.05;5.68;;;;;;;;;;5034437;28;20044;-85
2022/06/20 08:02:35;;;;;;;15.02;7.10;;;;;;;;;;5034077;28;20030;-85
2022/06/20 08:05:03;;;;;;;13.63;6.70;;;;;;;;;;5016102;28;20033;-86
2022/06/20 08:07:29;;;;;;;16.65;7.07;;;;;;;;;;5034243;28;20030;-86
2022/06/20 08:10:00;;;;;;;18.92;7.00;;;;;;;;;;5037874;28;20038;-84
2022/06/20 08:13:09;;;;;;;19.02;6.75;;;;;;;;;;5036507;28;20409;-85
2022/06/20 08:15:47;;;;;;;15.60;6.05;;;;;;;;;;5029489;28;20049;-85
2022/06/20 08:18:13;;;;;;;18.10;6.40;;;;;;;;;;5019715;28;20105;-85
2022/06/20 08:20:44;;;;;;;18.52;7.32;;;;;;;;;;5038491;28;20072;-84
2022/06/20 08:23:16;;;;;;;15.52;6.40;;;;;;;;;;5036146;28;20034;-84
2022/06/20 08:25:50;;;;;;;19.63;7.20;;;;;;;;;;5035853;28;20038;-84
2022/06/20 08:28:22;;;;;;;16.35;6.05;;;;;;;;;;5035711;28;20601;-84
2022/06/20 08:30:56;;;;;;;15.30;6.38;;;;;;;;;;5035475;28;20037;-84
2022/06/20 08:33:38;;;;;;;19.73;6.22;;;;;;;;;;5038673;28;20116;-84
2022/06/20 08:36:10;;;;;;;17.77;6.03;;;;;;;;;;5034853;28;20440;-86
2022/06/20 08:38:44;;;;;;;14.90;5.85;;;;;;;;;;5035763;28;20087;-85
2022/06/20 08:41:35;;;;;;;12.75;5.25;;;;;;;;;;5037109;28;20478;-84
2022/06/20 08:44:04;;;;;;;11.52;5.43;;;;;;;;;;5035125;28;20087;-84
2022/06/20 08:46:38;;;;;;;19.25;6.43;;;;;;;;;;5036437;28;20029;-84
2022/06/20 08:49:16;;;;;;;17.75;5.95;;;;;;;;;;5036821;28;20120;-84
2022/06/20 08:52:06;;;;;;;17.30;5.03;;;;;;;;;;5036583;28;20037;-85
2022/06/20 08:54:31;;;;;;;17.55;5.30;;;;;;;;;;5034612;28;20120;-85
2022/06/20 08:57:03;;;;;;;16.15;5.18;;;;;;;;;;5037015;28;20057;-86
2022/06/20 08:59:55;;;;;;;18.83;5.63;;;;;;;;;;5035258;28;20037;-85
2022/06/20 09:02:46;;;;;;;13.73;5.32;;;;;;;;;;5036613;28;20076;-84
2022/06/20 09:05:28;;;;;;;15.68;5.10;;;;;;;;;;5035779;28;20057;-85
2022/06/20 09:08:09;;;;;;;19.15;5.25;;;;;;;;;;5037742;28;20041;-85
2022/06/20 09:11:00;;;;;;;13.95;5.50;;;;;;;;;;5038741;28;20033;-85
2022/06/20 09:13:44;;;;;;;17.27;5.30;;;;;;;;;;5018459;28;20041;-86
2022/06/20 09:16:26;;;;;;;20.45;6.05;;;;;;;;;;5017786;28;20486;-86
2022/06/20 09:19:06;;;;;;;14.15;5.18;;;;;;;;;;5036140;28;20041;-86
2022/06/20 09:21:58;;;;;;;21.90;5.75;;;;;;;;;;5036363;28;20053;-88
2022/06/20 09:24:47;;;;;;;16.83;5.85;;;;;;;;;;5017357;28;20038;-85
2022/06/20 09:27:18;;;;;;;19.83;6.00;;;;;;;;;;5042483;28;20430;-86
2022/06/20 09:29:52;;;;;;;16.02;5.22;;;;;;;;;;5036129;28;20081;-86
2022/06/20 09:32:40;;;;;;;16.85;5.57;;;;;;;;;;5035949;28;20040;-85
2022/06/20 09:35:20;;;;;;;16.85;5.40;;;;;;;;;;5017726;28;20487;-87
2022/06/20 09:37:55;;;;;;;21.85;6.00;;;;;;;;;;5035385;28;20037;-86
2022/06/20 09:40:32;;;;;;;18.50;5.70;;;;;;;;;;5036321;28;20060;-86
2022/06/20 09:43:17;;;;;;;17.17;5.40;;;;;;;;;;5036510;28;20029;-86
2022/06/20 09:46:03;;;;;;;18.63;5.82;;;;;;;;;;5035876;28;20034;-86
2022/06/20 09:49:04;;;;;;;13.88;5.40;;;;;;;;;;5036458;28;20033;-86
2022/06/20 09:51:30;;;;;;;16.48;5.05;;;;;;;;;;5036428;28;20117;-86
2022/06/20 09:53:59;;;;;;;14.50;5.18;;;;;;;;;;5035360;28;20061;-84
2022/06/20 09:56:46;;;;;;;11.75;4.85;;;;;;;;;;5035592;28;20042;-86
2022/06/20 09:59:14;;;;;;;12.43;5.10;;;;;;;;;;5036680;28;20037;-86
2022/06/20 10:01:48;;;;;;;18.13;5.38;;;;;;;;;;5036456;28;20479;-86
2022/06/20 10:04:48;;;;;;;13.80;4.82;;;;;;;;;;5018082;28;20048;-87
2022/06/20 10:07:28;;;;;;;13.45;5.13;;;;;;;;;;5027240;28;20073;-87
2022/06/20 10:10:10;;;;;;;12.48;5.07;;;;;;;;;;5035761;28;20033;-87
2022/06/20 10:12:58;;;;;;;14.95;5.07;;;;;;;;;;5035565;28;20092;-87
2022/06/20 10:15:30;;;;;;;16.92;5.18;;;;;;;;;;5017131;28;20045;-86
2022/06/20 10:18:33;;;;;;;14.15;5.00;;;;;;;;;;5035680;28;20061;-86
2022/06/20 10:21:20;;;;;;;15.40;5.05;;;;;;;;;;5035547;28;20029;-86
2022/06/20 10:24:11;;;;;;;16.88;5.07;;;;;;;;;;5035674;28;20098;-87
2022/06/20 10:26:45;;;;;;;15.93;5.05;;;;;;;;;;5035826;28;20377;-87
2022/06/20 10:29:25;;;;;;;13.07;5.13;;;;;;;;;;5034840;28;20045;-87
2022/06/20 10:31:59;;;;;;;15.32;5.20;;;;;;;;;;5016920;28;20034;-86
2022/06/20 10:34:49;;;;;;;12.98;4.90;;;;;;;;;;5034110;28;20048;-87
2022/06/20 10:37:30;;;;;;;12.80;4.85;;;;;;;;;;5037681;28;20029;-88
2022/06/20 10:40:17;;;;;;;11.20;4.70;;;;;;;;;;5039299;28;20083;-86
2022/06/20 10:43:01;;;;;;;11.73;4.85;;;;;;;;;;5021660;28;20037;-86
2022/06/20 10:45:45;;;;;;;14.25;4.95;;;;;;;;;;5039496;28;20072;-86
2022/06/20 10:48:33;;;;;;;13.38;4.90;;;;;;;;;;5022064;28;20412;-87
2022/06/20 10:51:30;;;;;;;10.05;4.13;;;;;;;;;;5021124;28;20038;-86
2022/06/20 10:54:37;;;;;;;15.02;4.13;;;;;;;;;;5021082;28;20028;-85
2022/06/20 10:57:09;;;;;;;13.75;4.50;;;;;;;;;;5021941;28;20485;-86
2022/06/20 11:00:06;;;;;;;13.00;4.07;;;;;;;;;;5039697;28;20033;-87
2022/06/20 11:02:56;;;;;;;13.20;4.13;;;;;;;;;;5039045;28;20079;-87
2022/06/20 11:05:43;;;;;;;13.02;3.78;;;;;;;;;;5038927;28;20040;-87
2022/06/20 11:08:51;;;;;;;13.45;4.60;;;;;;;;;;5037680;28;20029;-87
2022/06/20 11:11:41;;;;;;;14.40;4.22;;;;;;;;;;5054989;28;20032;-87
2022/06/20 11:14:21;;;;;;;14.38;4.15;;;;;;;;;;5058653;28;20025;-87
2022/06/20 11:17:21;;;;;;;11.10;4.10;;;;;;;;;;5049357;28;20037;-87
2022/06/20 11:19:59;;;;;;;11.85;3.97;;;;;;;;;;5023230;28;20052;-87
2022/06/20 11:22:37;;;;;;;12.88;4.20;;;;;;;;;;5049407;28;20108;-86
2022/06/20 11:25:15;;;;;;;14.75;4.43;;;;;;;;;;5030963;28;20037;-87
2022/06/20 11:28:04;;;;;;;16.35;3.97;;;;;;;;;;5049570;28;20033;-87
2022/06/20 11:30:41;;;;;;;13.80;4.10;;;;;;;;;;5050343;28;20037;-87
2022/06/20 11:33:12;;;;;;;11.90;3.92;;;;;;;;;;5050343;28;20382;-86
2022/06/20 11:36:02;;;;;;;9.60;3.85;;;;;;;;;;5031550;28;20037;-87
2022/06/20 11:38:58;;;;;;;11.52;3.97;;;;;;;;;;5031999;28;20044;-87
2022/06/20 11:42:04;;;;;;;15.18;3.88;;;;;;;;;;5050895;28;20123;-87
2022/06/20 11:45:00;;;;;;;15.65;4.10;;;;;;;;;;5034978;28;20560;-88
2022/06/20 11:47:53;;;;;;;11.23;4.20;;;;;;;;;;5036261;28;20029;-87
2022/06/20 11:50:37;;;;;;;10.25;3.97;;;;;;;;;;5054400;28;20029;-87
2022/06/20 11:53:21;;;;;;;12.75;4.60;;;;;;;;;;5054217;28;20485;-86
2022/06/20 11:56:11;;;;;;;13.50;4.05;;;;;;;;;;5050357;28;20049;-87
2022/06/20 11:58:36;;;;;;;16.08;5.00;;;;;;;;;;5046449;28;20060;-87
2022/06/20 12:01:11;;;;;;;10.25;4.53;;;;;;;;;;5026113;28;20037;-86
2022/06/20 12:03:58;;;;;;;13.05;4.38;;;;;;;;;;5041283;28;20164;-87
2022/06/20 12:06:45;;;;;;;12.48;4.72;;;;;;;;;;5041441;28;20029;-86
2022/06/20 12:09:34;;;;;;;13.20;4.35;;;;;;;;;;5040991;28;20033;-88
2022/06/20 12:12:40;;;;;;;11.88;4.18;;;;;;;;;;5028512;28;20501;-85
2022/06/20 12:15:25;;;;;;;10.88;4.20;;;;;;;;;;5034391;28;20131;-86
2022/06/20 12:18:05;;;;;;;8.98;4.13;;;;;;;;;;5047451;28;20033;-86
2022/06/20 12:23:37;;;;;;;13.20;4.22;;;;;;;;;;5038501;28;20025;-86
2022/06/20 12:26:31;;;;;;;11.75;4.57;;;;;;;;;;5039185;28;20029;-86
2022/06/20 12:28:59;;;;;;;13.93;4.55;;;;;;;;;;5038377;28;20063;-86
2022/06/20 12:31:35;;;;;;;10.32;4.28;;;;;;;;;;5037849;28;20039;-87
2022/06/20 12:34:20;;;;;;;13.38;4.30;;;;;;;;;;5036806;28;20168;-85
2022/06/20 12:37:00;;;;;;;9.45;4.18;;;;;;;;;;5009244;28;20108;-85
2022/06/20 12:39:37;;;;;;;9.38;4.25;;;;;;;;;;5043122;28;20095;-85
2022/06/20 12:42:39;;;;;;;14.23;4.53;;;;;;;;;;5042860;28;20056;-84
2022/06/20 12:45:27;;;;;;;13.02;4.60;;;;;;;;;;5042940;28;20116;-86
2022/06/20 12:48:14;;;;;;;12.93;4.65;;;;;;;;;;5043425;28;20102;-85
2022/06/20 12:51:05;;;;;;;13.18;4.60;;;;;;;;;;5024255;28;20091;-85
2022/06/20 12:53:55;;;;;;;10.27;4.35;;;;;;;;;;5042548;28;20053;-84
2022/06/20 12:56:21;;;;;;;12.80;5.03;;;;;;;;;;5042676;28;20041;-84
2022/06/20 12:59:08;;;;;;;13.32;4.72;;;;;;;;;;5042373;28;20052;-85
2022/06/20 13:01:46;;;;;;;11.40;4.22;;;;;;;;;;5043257;28;20041;-85
2022/06/20 13:04:50;;;;;;;12.80;4.88;;;;;;;;;;5038308;28;20049;-84
2022/06/20 13:08:12;;;;;;;13.02;4.90;;;;;;;;;;5053512;28;20084;-85
2022/06/20 13:10:47;;;;;;;13.52;4.95;;;;;;;;;;5002210;28;20045;-86
2022/06/20 13:13:30;;;;;;;15.85;4.88;;;;;;;;;;5045212;28;20065;-84
2022/06/20 13:15:56;;;;;;;14.60;5.13;;;;;;;;;;5026139;28;20605;-83
2022/06/20 13:18:59;;;;;;;15.75;5.15;;;;;;;;;;5030830;28;20072;-84
2022/06/20 13:21:41;;;;;;;11.38;4.88;;;;;;;;;;5031409;28;20116;-85
2022/06/20 13:24:48;;;;;;;19.88;4.72;;;;;;;;;;5050215;28;20104;-84
2022/06/20 13:27:38;;;;;;;11.27;4.80;;;;;;;;;;5050140;28;20473;-84
2022/06/20 13:30:49;;;;;;;13.00;4.65;;;;;;;;;;5051144;28;20029;-84
2022/06/20 13:33:36;;;;;;;17.40;4.70;;;;;;;;;;5039124;28;20406;-83
2022/06/20 13:36:27;;;;;;;12.65;4.68;;;;;;;;;;5050762;28;20029;-83
2022/06/20 13:39:31;;;;;;;11.02;4.60;;;;;;;;;;5050089;28;20033;-84
2022/06/20 13:42:01;;;;;;;11.73;4.15;;;;;;;;;;5024350;28;20032;-84
2022/06/20 13:44:26;;;;;;;11.55;4.68;;;;;;;;;;5048229;28;20033;-85
2022/06/20 13:47:10;;;;;;;10.52;4.50;;;;;;;;;;5051428;28;20101;-84
2022/06/20 13:50:13;;;;;;;11.73;4.45;;;;;;;;;;5050068;28;20358;-84
2022/06/20 13:52:45;;;;;;;13.27;4.53;;;;;;;;;;5049626;28;20052;-84
2022/06/20 13:55:44;;;;;;;14.60;4.47;;;;;;;;;;5053335;28;20099;-84
2022/06/20 13:58:21;;;;;;;13.40;4.80;;;;;;;;;;5045291;28;20029;-84
2022/06/20 14:01:07;;;;;;;15.50;4.50;;;;;;;;;;5059154;28;20095;-84
2022/06/20 14:03:46;;;;;;;13.82;4.10;;;;;;;;;;5058684;28;20034;-83
2022/06/20 14:06:16;;;;;;;12.13;4.47;;;;;;;;;;5039678;28;20057;-84
2022/06/20 14:08:46;;;;;;;9.98;4.00;;;;;;;;;;5040687;28;20036;-84
2022/06/20 14:11:38;;;;;;;10.50;4.40;;;;;;;;;;5059114;28;20025;-84
2022/06/20 14:14:04;;;;;;;13.35;4.38;;;;;;;;;;5057870;28;20036;-84
2022/06/20 14:16:35;;;;;;;11.68;4.55;;;;;;;;;;5059142;28;20029;-84
2022/06/20 14:19:15;;;;;;;9.50;4.05;;;;;;;;;;5060046;28;20041;-87
2022/06/20 14:21:56;;;;;;;10.30;3.88;;;;;;;;;;5042844;28;20508;-83
2022/06/20 14:24:25;;;;;;;12.30;3.80;;;;;;;;;;5060451;28;20067;-84
2022/06/20 14:27:19;;;;;;;14.23;3.55;;;;;;;;;;5061579;28;20036;-84
2022/06/20 14:29:57;;;;;;;11.02;4.00;;;;;;;;;;5058526;28;20120;-84
2022/06/20 14:32:44;;;;;;;13.77;3.55;;;;;;;;;;5044814;28;20056;-84
2022/06/20 14:35:22;;;;;;;11.02;3.50;;;;;;;;;;5039879;28;20033;-84
2022/06/20 14:38:02;;;;;;;10.95;3.50;;;;;;;;;;5039830;28;20033;-84
2022/06/20 14:40:49;;;;;;;13.45;4.03;;;;;;;;;;5022545;28;20045;-84
2022/06/20 14:43:19;;;;;;;11.23;3.55;;;;;;;;;;5040291;28;20055;-86
2022/06/20 14:46:14;;;;;;;10.25;3.63;;;;;;;;;;5039692;28;20037;-85
2022/06/20 14:48:51;;;;;;;12.48;3.55;;;;;;;;;;5021411;28;20053;-85
2022/06/20 14:51:28;;;;;;;8.32;3.47;;;;;;;;;;5040730;28;20038;-85
2022/06/20 14:53:53;;;;;;;8.82;3.25;;;;;;;;;;5060740;28;20123;-85
2022/06/20 14:56:48;;;;;;;10.98;3.00;;;;;;;;;;5041986;28;20133;-86
2022/06/20 14:59:23;;;;;;;12.40;3.63;;;;;;;;;;5054824;28;20083;-85
2022/06/20 15:01:55;;;;;;;10.52;3.60;;;;;;;;;;5059779;28;20043;-86
2022/06/20 15:04:29;;;;;;;10.65;3.47;;;;;;;;;;5059209;28;20033;-85
2022/06/20 15:07:25;;;;;;;11.10;3.78;;;;;;;;;;5061178;28;20075;-86
2022/06/20 15:09:59;;;;;;;14.35;3.47;;;;;;;;;;5059690;28;20078;-85
2022/06/20 15:12:33;;;;;;;11.85;3.35;;;;;;;;;;5057069;28;20037;-85
2022/06/20 15:15:19;;;;;;;10.15;3.55;;;;;;;;;;5059574;28;20486;-85
2022/06/20 15:18:12;;;;;;;11.25;3.42;;;;;;;;;;5059433;28;20129;-85
2022/06/20 15:20:43;;;;;;;12.57;3.60;;;;;;;;;;5027699;28;20517;-86
2022/06/20 15:23:29;;;;;;;10.85;3.50;;;;;;;;;;5059082;28;20045;-85
2022/06/20 15:26:00;;;;;;;11.38;3.25;;;;;;;;;;5043793;28;20025;-84
2022/06/20 15:28:29;;;;;;;13.55;3.65;;;;;;;;;;5060383;28;20041;-86
2022/06/20 15:31:05;;;;;;;6.88;3.10;;;;;;;;;;5061798;28;20025;-85
2022/06/20 15:33:30;;;;;;;12.80;3.60;;;;;;;;;;5043420;28;20029;-84
2022/06/20 15:36:40;;;;;;;7.53;3.10;;;;;;;;;;5060558;28;20118;-88
2022/06/20 15:39:28;;;;;;;14.27;4.00;;;;;;;;;;5063939;28;20033;-86
2022/06/20 16:32:34;;;;;;;9.85;3.53;;;;;;;;;;6277051;22;1293388;-85